METAR Data
IDs: Format: Raw Decoded Include TAF

Data at: 2012 UTC 31 Jan 2023

KVCT 311951Z 34012G18KT 6SM BR OVC005 04/03 A3021 RMK AO2 SLP232 T00390033